Terminal Aerodrome Forecast
Issued by NWS

Home | Current Version | Previous Version | Text Only | Print | Product List | Glossary On
Versions: 1 2 3 4 5 6 7 8 9 10 11 12 13 14 15 16 17 18 19 20 21 22 23 24 25 26 27 28 29 30 31
000
FTUS43 KDMX 202331
TAFMCW
TAF
KMCW 202331Z 2100/2124 06007KT P6SM FEW027
     FM210800 10007KT P6SM VCTS SCT040CB BKN180
     FM211000 10007KT 4SM BR VCTS SCT040CB BKN130
     FM211300 13009KT P6SM VCTS BKN060CB
     FM211800 15010KT P6SM BKN160=

USA.gov is the U.S. government's official web portal to all federal, state and local government web resources and services.